createdAt,value
2022-08-20T00:00:39.273Z,30.56
2022-08-20T00:03:10.431Z,30.61
2022-08-20T00:05:55.971Z,30.60
2022-08-20T00:08:24.113Z,30.62
2022-08-20T00:10:55.558Z,30.53
2022-08-20T00:13:28.072Z,30.60
2022-08-20T00:15:54.812Z,30.60
2022-08-20T00:18:22.226Z,30.60
2022-08-20T00:20:51.632Z,30.60
2022-08-20T00:23:19.886Z,30.59
2022-08-20T00:25:46.867Z,30.60
2022-08-20T00:28:14.227Z,30.61
2022-08-20T00:30:43.491Z,30.61
2022-08-20T00:33:13.630Z,30.60
2022-08-20T00:35:47.534Z,30.60
2022-08-20T00:38:14.175Z,30.60
2022-08-20T00:40:48.817Z,30.26
2022-08-20T00:43:41.681Z,30.59
2022-08-20T00:46:17.668Z,30.59
2022-08-20T00:48:47.847Z,30.58
2022-08-20T00:51:27.213Z,30.49
2022-08-20T00:54:15.013Z,30.59
2022-08-20T00:56:43.994Z,30.57
2022-08-20T00:59:15.377Z,30.58
2022-08-20T01:01:55.697Z,30.59
2022-08-20T01:04:26.306Z,30.48
2022-08-20T01:06:53.074Z,30.52
2022-08-20T01:09:49.690Z,30.50
2022-08-20T01:12:07.634Z,30.59
2022-08-20T01:14:34.486Z,30.57
2022-08-20T01:17:05.709Z,30.57
2022-08-20T01:19:41.878Z,30.57
2022-08-20T01:22:28.271Z,30.49
2022-08-20T01:25:06.111Z,30.58
2022-08-20T01:27:33.654Z,30.57
2022-08-20T01:30:10.197Z,30.57
2022-08-20T01:32:36.762Z,30.57
2022-08-20T01:35:04.152Z,30.02
2022-08-20T01:37:31.645Z,30.57
2022-08-20T01:39:58.537Z,30.26
2022-08-20T01:42:30.259Z,30.56
2022-08-20T01:44:56.869Z,30.57
2022-08-20T01:47:27.790Z,30.58
2022-08-20T01:50:15.559Z,30.57
2022-08-20T01:53:21.341Z,30.57
2022-08-20T01:55:47.803Z,30.53
2022-08-20T01:58:14.469Z,30.56
2022-08-20T02:00:41.139Z,30.54
2022-08-20T02:03:08.690Z,30.56
2022-08-20T02:05:36.046Z,30.44
2022-08-20T02:08:02.929Z,30.57
2022-08-20T02:10:31.661Z,30.55
2022-08-20T02:13:00.405Z,30.56
2022-08-20T02:15:35.017Z,30.51
2022-08-20T02:18:07.985Z,30.50
2022-08-20T02:20:35.820Z,30.55
2022-08-20T02:23:03.352Z,30.56
2022-08-20T02:25:32.975Z,30.56
2022-08-20T02:28:02.212Z,30.55
2022-08-20T02:30:33.479Z,30.55
2022-08-20T02:33:06.695Z,30.56
2022-08-20T02:35:33.999Z,30.55
2022-08-20T02:38:00.889Z,30.55
2022-08-20T02:40:31.250Z,30.46
2022-08-20T02:43:02.405Z,30.54
2022-08-20T02:45:31.415Z,30.53
2022-08-20T02:47:59.334Z,30.43
2022-08-20T02:50:26.907Z,30.54
2022-08-20T02:52:53.578Z,30.54
2022-08-20T02:55:27.199Z,30.53
2022-08-20T02:57:58.571Z,30.53
2022-08-20T03:00:27.200Z,30.53
2022-08-20T03:02:53.779Z,30.53
2022-08-20T03:05:20.361Z,30.53
2022-08-20T03:07:49.499Z,30.53
2022-08-20T03:10:16.781Z,30.52
2022-08-20T03:12:43.257Z,30.51
2022-08-20T03:15:17.752Z,30.37
2022-08-20T03:17:44.921Z,30.51
2022-08-20T03:20:12.268Z,30.51
2022-08-20T03:22:38.860Z,30.41
2022-08-20T03:25:06.467Z,30.52
2022-08-20T03:27:36.451Z,30.51
2022-08-20T03:30:05.909Z,30.49
2022-08-20T03:32:32.583Z,29.89
2022-08-20T03:34:59.023Z,30.50
2022-08-20T03:37:28.841Z,30.50
2022-08-20T03:39:55.303Z,30.49
2022-08-20T03:42:21.778Z,30.49
2022-08-20T03:44:48.626Z,30.49
2022-08-20T03:47:25.568Z,30.48
2022-08-20T03:49:52.053Z,30.49
2022-08-20T03:52:18.494Z,30.48
2022-08-20T03:54:46.007Z,30.48
2022-08-20T03:57:14.680Z,30.38
2022-08-20T03:59:42.594Z,30.48
2022-08-20T04:02:09.137Z,30.49
2022-08-20T04:04:35.590Z,30.47
2022-08-20T04:07:17.255Z,30.47
2022-08-20T04:09:43.761Z,30.47
2022-08-20T04:12:12.959Z,30.46
2022-08-20T04:14:40.229Z,30.46
2022-08-20T04:17:10.014Z,30.46
2022-08-20T04:19:38.039Z,30.46
2022-08-20T04:22:05.955Z,30.46
2022-08-20T04:24:32.867Z,30.37
2022-08-20T04:27:03.084Z,30.39
2022-08-20T04:29:32.018Z,30.44
2022-08-20T04:32:00.637Z,30.45
2022-08-20T04:34:29.319Z,30.45
2022-08-20T04:36:55.997Z,30.44
2022-08-20T04:39:22.811Z,30.43
2022-08-20T04:41:49.369Z,30.44
2022-08-20T04:44:15.855Z,30.42
2022-08-20T04:46:42.443Z,30.42
2022-08-20T04:49:08.996Z,30.42
2022-08-20T04:51:35.647Z,30.41
2022-08-20T04:54:04.475Z,30.41
2022-08-20T04:56:38.576Z,30.40
2022-08-20T04:59:05.759Z,30.39
2022-08-20T05:01:33.226Z,30.40
2022-08-20T05:04:00.230Z,30.08
2022-08-20T05:06:30.954Z,30.36
2022-08-20T05:08:59.390Z,30.39
2022-08-20T05:11:33.716Z,30.39
2022-08-20T05:14:08.740Z,30.35
2022-08-20T05:16:40.413Z,30.39
2022-08-20T05:19:09.932Z,30.39
2022-08-20T05:21:37.205Z,30.41
2022-08-20T05:24:04.269Z,30.41
2022-08-20T05:26:30.740Z,30.37
2022-08-20T05:28:59.390Z,30.39
2022-08-20T05:31:31.648Z,30.42
2022-08-20T05:34:01.375Z,30.42
2022-08-20T05:36:27.940Z,30.40
2022-08-20T05:38:54.792Z,30.41
2022-08-20T05:41:29.373Z,30.42
2022-08-20T05:44:02.884Z,30.31
2022-08-20T05:46:31.665Z,30.42
2022-08-20T05:48:59.482Z,30.27
2022-08-20T05:51:26.695Z,30.40
2022-08-20T05:53:53.168Z,30.39
2022-08-20T05:56:19.677Z,30.30
2022-08-20T05:58:53.122Z,30.41
2022-08-20T06:01:19.748Z,30.40
2022-08-20T06:04:04.958Z,30.40
2022-08-20T06:06:44.371Z,30.39
2022-08-20T06:09:12.219Z,30.38
2022-08-20T06:11:38.658Z,30.39
2022-08-20T06:14:05.581Z,30.39
2022-08-20T06:16:32.103Z,30.40
2022-08-20T06:18:58.630Z,30.40
2022-08-20T06:21:25.427Z,30.37
2022-08-20T06:23:57.302Z,30.39
2022-08-20T06:26:29.709Z,30.28
2022-08-20T06:28:57.238Z,30.24
2022-08-20T06:31:23.734Z,30.38
2022-08-20T06:33:50.177Z,30.39
2022-08-20T06:36:19.007Z,30.38
2022-08-20T06:38:46.288Z,30.38
2022-08-20T06:41:12.972Z,30.38
2022-08-20T06:43:39.501Z,30.38
2022-08-20T06:46:06.917Z,30.37
2022-08-20T06:48:34.039Z,30.37
2022-08-20T06:51:01.105Z,30.37
2022-08-20T06:53:28.810Z,30.35
2022-08-20T06:55:59.232Z,30.37
2022-08-20T06:58:36.135Z,30.37
2022-08-20T07:01:09.028Z,30.37
2022-08-20T07:03:38.269Z,29.88
2022-08-20T07:06:05.763Z,30.37
2022-08-20T07:08:32.683Z,29.78
2022-08-20T07:10:59.680Z,30.37
2022-08-20T07:13:26.227Z,30.37
2022-08-20T07:15:54.192Z,30.37
2022-08-20T07:18:28.064Z,30.38
2022-08-20T07:20:57.363Z,30.37
2022-08-20T07:23:27.243Z,30.37
2022-08-20T07:25:55.790Z,30.37
2022-08-20T07:28:24.421Z,30.37
2022-08-20T07:31:12.302Z,30.37
2022-08-20T07:33:41.717Z,30.37
2022-08-20T07:36:09.626Z,30.28
2022-08-20T07:38:37.491Z,30.38
2022-08-20T07:41:07.372Z,30.30
2022-08-20T07:43:34.858Z,30.39
2022-08-20T07:46:07.401Z,30.41
2022-08-20T07:48:39.855Z,30.42
2022-08-20T07:51:08.432Z,30.46
2022-08-20T07:53:37.571Z,30.46
2022-08-20T07:56:07.228Z,30.45
2022-08-20T07:58:36.609Z,30.35
2022-08-20T08:01:05.628Z,30.29
2022-08-20T08:03:40.558Z,30.26
2022-08-20T08:06:30.376Z,29.81
2022-08-20T08:09:06.693Z,29.84
2022-08-20T08:11:37.511Z,29.94
2022-08-20T08:14:06.814Z,30.03
2022-08-20T08:16:34.463Z,30.06
2022-08-20T08:19:02.073Z,30.00
2022-08-20T08:21:29.992Z,29.92
2022-08-20T08:23:56.634Z,29.88
2022-08-20T08:26:23.163Z,29.83
2022-08-20T08:28:49.665Z,29.79
2022-08-20T08:31:16.135Z,29.77
2022-08-20T08:33:43.134Z,29.78
2022-08-20T08:36:15.847Z,29.82
2022-08-20T08:38:45.196Z,29.85
2022-08-20T08:41:29.222Z,29.91
2022-08-20T08:44:04.663Z,29.97
2022-08-20T08:46:35.584Z,29.94
2022-08-20T08:49:02.642Z,29.91
2022-08-20T08:51:45.044Z,29.91
2022-08-20T08:54:17.344Z,29.93
2022-08-20T08:56:44.062Z,29.94
2022-08-20T08:59:18.151Z,29.97
2022-08-20T09:01:54.990Z,29.96
2022-08-20T09:04:30.376Z,29.96
2022-08-20T09:06:58.665Z,30.07
2022-08-20T09:09:29.498Z,30.10
2022-08-20T09:12:02.371Z,30.10
2022-08-20T09:14:29.143Z,30.15
2022-08-20T09:16:55.587Z,30.17
2022-08-20T09:19:22.126Z,30.19
2022-08-20T09:21:48.695Z,30.14
2022-08-20T09:24:15.282Z,30.24
2022-08-20T09:26:41.863Z,30.26
2022-08-20T09:29:08.370Z,30.25
2022-08-20T09:31:35.572Z,30.24
2022-08-20T09:34:04.486Z,30.24
2022-08-20T09:36:32.472Z,30.23
2022-08-20T09:38:59.702Z,30.22
2022-08-20T09:41:26.282Z,30.22
2022-08-20T09:43:52.816Z,30.21
2022-08-20T09:46:19.334Z,30.15
2022-08-20T09:48:53.257Z,30.21
2022-08-20T09:51:19.698Z,30.21
2022-08-20T09:53:46.448Z,30.15
2022-08-20T09:56:13.666Z,30.13
2022-08-20T09:58:53.319Z,29.97
2022-08-20T10:01:22.231Z,30.09
2022-08-20T10:03:50.132Z,30.11
2022-08-20T10:06:20.389Z,30.11
2022-08-20T10:08:48.531Z,29.95
2022-08-20T10:11:15.366Z,30.11
2022-08-20T10:13:42.010Z,30.12
2022-08-20T10:16:08.498Z,30.10
2022-08-20T10:18:36.552Z,30.11
2022-08-20T10:21:03.436Z,30.11
2022-08-20T10:23:29.924Z,29.96
2022-08-20T10:25:56.527Z,30.12
2022-08-20T10:28:23.099Z,30.11
2022-08-20T10:30:49.571Z,30.12
2022-08-20T10:33:16.054Z,30.05
2022-08-20T10:35:42.515Z,29.95
2022-08-20T10:38:08.984Z,30.13
2022-08-20T10:40:35.502Z,30.12
2022-08-20T10:43:03.000Z,30.13
2022-08-20T10:45:29.459Z,30.15
2022-08-20T10:47:59.493Z,30.12
2022-08-20T10:50:26.078Z,30.15
2022-08-20T10:52:57.070Z,30.13
2022-08-20T10:55:23.495Z,30.08
2022-08-20T10:57:50.064Z,30.07
2022-08-20T11:00:19.043Z,30.08
2022-08-20T11:02:45.803Z,29.95
2022-08-20T11:05:12.441Z,29.92
2022-08-20T11:08:08.471Z,30.08
2022-08-20T11:10:31.418Z,29.80
2022-08-20T11:12:57.864Z,30.09
2022-08-20T11:15:24.373Z,30.08
2022-08-20T11:17:51.001Z,30.07
2022-08-20T11:20:19.933Z,30.09
2022-08-20T11:22:47.143Z,30.07
2022-08-20T11:25:13.670Z,30.09
2022-08-20T11:27:46.838Z,30.09
2022-08-20T11:30:24.203Z,30.11
2022-08-20T11:32:50.790Z,30.12
2022-08-20T11:35:41.626Z,30.11
2022-08-20T11:38:05.391Z,30.06
2022-08-20T11:40:32.008Z,30.13
2022-08-20T11:43:14.163Z,30.13
2022-08-20T11:45:41.978Z,30.09
2022-08-20T11:48:08.481Z,30.16
2022-08-20T11:50:35.131Z,30.13
2022-08-20T11:53:01.805Z,30.15
2022-08-20T11:55:30.780Z,30.16
2022-08-20T11:58:00.010Z,30.15
2022-08-20T12:00:31.806Z,30.16
2022-08-20T12:03:00.776Z,30.05
2022-08-20T12:05:29.393Z,30.14
2022-08-20T12:07:56.200Z,30.14
2022-08-20T12:10:24.416Z,30.14
2022-08-20T12:12:50.895Z,30.15
2022-08-20T12:15:17.515Z,30.08
2022-08-20T12:17:44.007Z,30.14
2022-08-20T12:20:13.311Z,30.14
2022-08-20T12:22:40.495Z,30.04
2022-08-20T12:25:08.297Z,30.14
2022-08-20T12:27:39.009Z,30.05
2022-08-20T12:30:09.816Z,30.06
2022-08-20T12:32:36.323Z,30.09
2022-08-20T12:35:04.551Z,30.09
2022-08-20T12:37:32.304Z,30.07
2022-08-20T12:40:01.027Z,30.07
2022-08-20T12:42:30.551Z,30.06
2022-08-20T12:44:58.584Z,30.07
2022-08-20T12:47:28.114Z,30.00
2022-08-20T12:49:58.603Z,30.07
2022-08-20T12:52:25.777Z,30.07
2022-08-20T12:54:52.752Z,30.04
2022-08-20T12:57:45.115Z,30.06
2022-08-20T13:00:21.926Z,30.06
2022-08-20T13:02:51.450Z,30.07
2022-08-20T13:05:18.098Z,30.08
2022-08-20T13:07:45.639Z,30.07
2022-08-20T13:10:15.875Z,30.07
2022-08-20T13:12:42.573Z,30.10
2022-08-20T13:15:09.740Z,30.11
2022-08-20T13:17:38.605Z,30.14
2022-08-20T13:20:09.494Z,30.14
2022-08-20T13:22:36.730Z,30.12
2022-08-20T13:25:04.479Z,29.76
2022-08-20T13:27:30.943Z,30.13
2022-08-20T13:29:58.752Z,30.11
2022-08-20T13:32:28.383Z,30.15
2022-08-20T13:34:54.834Z,30.17
2022-08-20T13:37:25.784Z,30.17
2022-08-20T13:39:53.609Z,30.18
2022-08-20T13:42:20.174Z,30.12
2022-08-20T13:44:47.470Z,30.17
2022-08-20T13:47:19.711Z,29.86
2022-08-20T13:49:47.525Z,30.18
2022-08-20T13:52:16.989Z,30.18
2022-08-20T13:54:43.871Z,30.21
2022-08-20T13:57:19.615Z,30.25
2022-08-20T13:59:51.691Z,30.28
2022-08-20T14:02:18.985Z,30.30
2022-08-20T14:04:46.295Z,30.31
2022-08-20T14:07:28.879Z,30.35
2022-08-20T14:10:07.895Z,30.38
2022-08-20T14:12:34.797Z,30.41
2022-08-20T14:15:01.320Z,30.45
2022-08-20T14:17:34.243Z,30.45
2022-08-20T14:20:08.583Z,30.48
2022-08-20T14:22:36.726Z,30.52
2022-08-20T14:25:05.131Z,30.50
2022-08-20T14:27:33.347Z,30.55
2022-08-20T14:30:00.910Z,30.60
2022-08-20T14:32:27.747Z,30.65
2022-08-20T14:34:56.621Z,30.68
2022-08-20T14:37:32.845Z,30.70
2022-08-20T14:40:01.627Z,30.40
2022-08-20T14:42:30.498Z,30.73
2022-08-20T14:44:58.794Z,30.82
2022-08-20T14:47:31.779Z,30.85
2022-08-20T14:50:04.675Z,30.88
2022-08-20T14:52:33.795Z,30.91
2022-08-20T14:55:00.488Z,30.70
2022-08-20T14:57:27.382Z,30.94
2022-08-20T14:59:53.957Z,30.94
2022-08-20T15:02:20.631Z,30.88
2022-08-20T15:04:51.657Z,30.96
2022-08-20T15:07:28.395Z,30.96
2022-08-20T15:09:55.900Z,30.91
2022-08-20T15:12:23.444Z,30.88
2022-08-20T15:14:50.452Z,30.97
2022-08-20T15:17:28.653Z,30.97
2022-08-20T15:19:55.922Z,30.98
2022-08-20T15:22:24.004Z,30.99
2022-08-20T15:24:55.448Z,31.01
2022-08-20T15:27:23.916Z,31.03
2022-08-20T15:29:53.607Z,31.04
2022-08-20T15:32:20.954Z,31.03
2022-08-20T15:34:47.631Z,31.04
2022-08-20T15:37:17.275Z,31.05
2022-08-20T15:39:45.466Z,31.06
2022-08-20T15:42:13.519Z,31.07
2022-08-20T15:44:41.323Z,30.89
2022-08-20T15:47:26.386Z,31.09
2022-08-20T15:50:00.058Z,31.11
2022-08-20T15:52:31.144Z,31.12
2022-08-20T15:54:57.856Z,31.10
2022-08-20T15:58:00.167Z,31.05
2022-08-20T16:00:53.602Z,30.97
2022-08-20T16:03:46.455Z,31.00
2022-08-20T16:06:18.347Z,31.00
2022-08-20T16:09:15.054Z,30.93
2022-08-20T16:11:59.859Z,30.83
2022-08-20T16:14:30.204Z,30.80
2022-08-20T16:17:05.159Z,30.67
2022-08-20T16:19:56.080Z,30.74
2022-08-20T16:22:23.307Z,30.65
2022-08-20T16:24:50.256Z,30.64
2022-08-20T16:27:35.882Z,30.59
2022-08-20T16:30:46.360Z,30.33
2022-08-20T16:33:28.123Z,30.51
2022-08-20T16:36:13.503Z,30.49
2022-08-20T16:38:49.415Z,30.41
2022-08-20T16:41:28.682Z,30.35
2022-08-20T16:44:03.798Z,30.33
2022-08-20T16:46:39.355Z,30.25
2022-08-20T16:49:13.459Z,30.25
2022-08-20T16:51:41.131Z,30.22
2022-08-20T16:54:08.570Z,30.14
2022-08-20T16:56:44.742Z,30.07
2022-08-20T16:59:24.535Z,30.08
2022-08-20T17:02:10.638Z,30.04
2022-08-20T17:04:57.844Z,29.98
2022-08-20T17:07:50.137Z,29.94
2022-08-20T17:10:25.997Z,29.95
2022-08-20T17:12:59.853Z,29.94
2022-08-20T17:15:32.704Z,29.90
2022-08-20T17:18:20.108Z,29.81
2022-08-20T17:20:46.707Z,29.85
2022-08-20T17:23:18.276Z,29.77
2022-08-20T17:25:55.790Z,29.72
2022-08-20T17:28:25.987Z,29.66
2022-08-20T17:30:54.963Z,29.66
2022-08-20T17:33:24.662Z,29.61
2022-08-20T17:35:55.433Z,29.57
2022-08-20T17:38:38.438Z,29.55
2022-08-20T17:41:16.727Z,29.55
2022-08-20T17:43:44.722Z,29.53
2022-08-20T17:46:16.453Z,29.62
2022-08-20T17:48:46.146Z,29.63
2022-08-20T17:51:26.905Z,29.70
2022-08-20T17:54:09.970Z,29.70
2022-08-20T17:56:40.695Z,29.76
2022-08-20T17:59:12.159Z,29.83
2022-08-20T18:01:38.710Z,29.86
2022-08-20T18:04:05.247Z,29.84
2022-08-20T18:06:40.794Z,29.92
2022-08-20T18:09:22.802Z,29.94
2022-08-20T18:11:59.405Z,29.97
2022-08-20T18:14:58.524Z,29.99
2022-08-20T18:17:46.759Z,29.97
2022-08-20T18:20:22.295Z,30.03
2022-08-20T18:23:12.239Z,30.06
2022-08-20T18:25:45.898Z,30.07
2022-08-20T18:28:16.679Z,30.09
2022-08-20T18:30:49.200Z,30.11
2022-08-20T18:33:27.114Z,30.12
2022-08-20T18:36:18.849Z,30.13
2022-08-20T18:39:00.573Z,30.14
2022-08-20T18:41:31.231Z,30.15
2022-08-20T18:44:02.650Z,30.12
2022-08-20T18:46:29.283Z,30.15
2022-08-20T18:48:59.697Z,30.18
2022-08-20T18:51:39.524Z,30.21
2022-08-20T18:54:06.159Z,30.22
2022-08-20T18:56:42.794Z,30.24
2022-08-20T18:59:11.881Z,30.25
2022-08-20T19:01:38.673Z,30.25
2022-08-20T19:04:20.083Z,30.27
2022-08-20T19:06:57.463Z,30.28
2022-08-20T19:09:46.294Z,30.30
2022-08-20T19:12:34.661Z,30.30
2022-08-20T19:15:19.165Z,30.31
2022-08-20T19:17:54.713Z,30.30
2022-08-20T19:20:25.187Z,30.29
2022-08-20T19:22:53.858Z,30.28
2022-08-20T19:25:29.878Z,30.29
2022-08-20T19:28:02.703Z,30.30
2022-08-20T19:30:36.626Z,30.29
2022-08-20T19:33:03.904Z,30.26
2022-08-20T19:35:30.862Z,30.22
2022-08-20T19:37:59.339Z,30.30
2022-08-20T19:40:29.912Z,30.30
2022-08-20T19:42:59.566Z,30.31
2022-08-20T19:45:50.173Z,30.31
2022-08-20T19:48:39.243Z,30.28
2022-08-20T19:51:52.129Z,30.30
2022-08-20T19:54:21.435Z,30.31
2022-08-20T19:56:48.438Z,30.31
2022-08-20T19:59:21.719Z,30.31
2022-08-20T20:02:01.423Z,30.27
2022-08-20T20:04:36.162Z,30.31
2022-08-20T20:07:08.571Z,30.31
2022-08-20T20:09:35.050Z,30.31
2022-08-20T20:12:08.249Z,30.30
2022-08-20T20:14:37.390Z,30.31
2022-08-20T20:17:06.369Z,30.31
2022-08-20T20:19:48.566Z,30.27
2022-08-20T20:22:23.443Z,30.31
2022-08-20T20:24:58.887Z,30.31
2022-08-20T20:27:27.193Z,30.31
2022-08-20T20:30:08.188Z,30.28
2022-08-20T20:32:38.295Z,30.08
2022-08-20T20:35:06.164Z,30.30
2022-08-20T20:37:50.479Z,30.30
2022-08-20T20:40:28.955Z,30.31
2022-08-20T20:43:01.547Z,30.30
2022-08-20T20:45:34.882Z,30.31
2022-08-20T20:48:17.004Z,30.30
2022-08-20T20:50:43.872Z,30.30
2022-08-20T20:53:11.367Z,30.29
2022-08-20T20:55:38.023Z,30.17
2022-08-20T20:58:04.832Z,30.06
2022-08-20T21:00:33.719Z,30.29
2022-08-20T21:03:02.796Z,30.21
2022-08-20T21:05:32.189Z,30.28
2022-08-20T21:08:02.326Z,30.28
2022-08-20T21:10:35.293Z,30.28
2022-08-20T21:13:05.099Z,30.28
2022-08-20T21:15:32.927Z,30.23
2022-08-20T21:18:01.814Z,30.27
2022-08-20T21:20:34.915Z,30.27
2022-08-20T21:23:01.523Z,30.23
2022-08-20T21:25:31.779Z,30.21
2022-08-20T21:27:58.504Z,30.26
2022-08-20T21:30:25.216Z,30.27
2022-08-20T21:32:51.926Z,30.26
2022-08-20T21:35:19.215Z,30.26
2022-08-20T21:37:45.748Z,30.26
2022-08-20T21:40:13.925Z,30.25
2022-08-20T21:42:41.179Z,30.25
2022-08-20T21:45:14.257Z,30.24
2022-08-20T21:47:45.530Z,30.25
2022-08-20T21:50:18.633Z,30.25
2022-08-20T21:52:58.048Z,30.23
2022-08-20T21:55:28.164Z,30.25
2022-08-20T21:57:54.706Z,30.25
2022-08-20T22:00:44.322Z,30.24
2022-08-20T22:03:13.350Z,30.24
2022-08-20T22:05:41.490Z,30.24
2022-08-20T22:08:08.800Z,30.23
2022-08-20T22:10:35.275Z,30.20
2022-08-20T22:13:01.930Z,30.13
2022-08-20T22:15:28.785Z,30.19
2022-08-20T22:17:55.284Z,30.22
2022-08-20T22:20:25.135Z,30.22
2022-08-20T22:22:51.810Z,30.12
2022-08-20T22:25:18.341Z,30.21
2022-08-20T22:27:44.840Z,30.21
2022-08-20T22:30:11.935Z,30.17
2022-08-20T22:32:51.986Z,30.19
2022-08-20T22:35:19.133Z,30.21
2022-08-20T22:37:45.838Z,30.16
2022-08-20T22:40:12.643Z,30.12
2022-08-20T22:42:39.131Z,30.14
2022-08-20T22:45:11.733Z,30.18
2022-08-20T22:47:42.085Z,30.18
2022-08-20T22:50:10.828Z,30.18
2022-08-20T22:52:39.357Z,30.17
2022-08-20T22:55:06.926Z,30.17
2022-08-20T22:57:36.832Z,30.16
2022-08-20T23:00:08.658Z,30.16
2022-08-20T23:02:35.111Z,30.15
2022-08-20T23:05:01.803Z,30.14
2022-08-20T23:07:28.384Z,30.15
2022-08-20T23:09:54.857Z,30.14
2022-08-20T23:12:21.570Z,30.07
2022-08-20T23:14:48.020Z,30.14
2022-08-20T23:17:19.938Z,30.04
2022-08-20T23:19:48.159Z,30.14
2022-08-20T23:22:14.762Z,30.12
2022-08-20T23:24:41.490Z,30.10
2022-08-20T23:27:10.179Z,30.13
2022-08-20T23:29:36.707Z,30.12
2022-08-20T23:32:03.678Z,30.01
2022-08-20T23:34:30.457Z,30.10
2022-08-20T23:36:57.565Z,30.07
2022-08-20T23:39:25.355Z,30.10
2022-08-20T23:41:52.356Z,30.11
2022-08-20T23:44:25.423Z,30.03
2022-08-20T23:46:54.770Z,30.07
2022-08-20T23:49:21.274Z,30.08
2022-08-20T23:51:47.803Z,30.08
2022-08-20T23:54:14.354Z,30.04
2022-08-20T23:56:40.804Z,30.06
2022-08-20T23:59:07.258Z,30.06
